< < Back
Terminal Aerodrome Forecast


Current Version              Previous Versions:   1  2  3  4  5  6  7  8  9  

Terminal Aerodrome Forecast

986
FTUS44 KMRX 221120
TAFCHA
TAF
KCHA 221120Z 2212/2312 00000KT P6SM SCT025 BKN040
     FM221400 14003KT P6SM SCT040 BKN100
     FM221700 15004KT P6SM VCTS BKN035CB
     FM222000 VRB03KT P6SM SCT040 BKN100
     FM230100 00000KT P6SM FEW045 BKN120=



Latest METAR

513
SAUS80 KWBC 230200 RRA
MTRCHA
METAR KCHA 230153Z 15003KT 10SM SCT150 BKN250 25/22 A3011 RMK AO2 SLP187
T02500217


USA.gov is the U.S. government's official web portal to all federal, state and local government web resources and services.